Time,TemperatureF,DewpointF,PressureIn,WindDirection,WindDirectionDegrees,WindSpeedMPH,WindSpeedGustMPH,Humidity,HourlyPrecipIn,Conditions,Clouds,dailyrainin,SoftwareType,DateUTC
2013-03-17 00:00:00,54.9,45.6,30.10,SW,234,0.0,0.0,71,0.00,CLR,,0.00,WeatherDisplay:10.37,2013-03-17 04:00:00,
2013-03-17 00:01:00,54.7,45.5,30.10,SW,234,0.0,0.0,71,0.00,CLR,,0.00,WeatherDisplay:10.37,2013-03-17 04:01:00,
2013-03-17 00:04:00,54.7,45.5,30.10,SW,233,0.0,0.0,71,0.00,CLR,,0.00,WeatherDisplay:10.37,2013-03-17 04:04:00,
2013-03-17 00:09:00,54.5,45.3,30.10,SW,234,0.0,0.0,71,0.00,CLR,,0.00,WeatherDisplay:10.37,2013-03-17 04:09:00,
2013-03-17 00:16:00,54.3,45.1,30.07,SW,234,0.0,0.0,71,0.00,CLR,,0.00,WeatherDisplay:10.37,2013-03-17 04:16:00,
2013-03-17 00:21:00,54.1,44.9,30.07,SW,234,0.0,0.0,71,0.00,CLR,,0.00,WeatherDisplay:10.37,2013-03-17 04:21:00,
2013-03-17 00:31:00,54.0,45.1,30.07,SW,233,0.0,0.0,72,0.00,CLR,,0.00,WeatherDisplay:10.37,2013-03-17 04:31:00,
2013-03-17 00:36:00,53.8,45.0,30.07,SW,234,0.0,0.0,72,0.00,CLR,,0.00,WeatherDisplay:10.37,2013-03-17 04:36:00,
2013-03-17 00:46:00,53.8,45.0,30.07,SW,234,0.0,0.0,72,0.00,CLR,,0.00,WeatherDisplay:10.37,2013-03-17 04:46:00,
2013-03-17 00:51:00,53.6,44.8,30.07,SW,234,0.0,0.0,72,0.00,CLR,,0.00,WeatherDisplay:10.37,2013-03-17 04:51:00,
2013-03-17 01:00:00,53.2,44.8,30.07,SW,234,0.0,0.0,73,0.00,CLR,,0.00,WeatherDisplay:10.37,2013-03-17 05:00:00,
2013-03-17 01:01:00,53.1,44.6,30.07,SW,234,0.0,0.0,73,0.00,CLR,,0.00,WeatherDisplay:10.37,2013-03-17 05:01:00,
2013-03-17 01:05:00,53.1,44.6,30.07,SW,234,0.0,0.0,73,0.00,CLR,,0.00,WeatherDisplay:10.37,2013-03-17 05:05:00,
2013-03-17 01:10:00,53.1,44.6,30.07,SW,234,0.0,0.0,73,0.00,CLR,,0.00,WeatherDisplay:10.37,2013-03-17 05:10:00,
2013-03-17 01:16:00,52.9,44.5,30.07,SW,233,0.0,0.0,73,0.00,CLR,,0.00,WeatherDisplay:10.37,2013-03-17 05:16:00,
2013-03-17 01:21:00,52.7,44.3,30.07,SW,234,0.0,0.0,73,0.00,CLR,,0.00,WeatherDisplay:10.37,2013-03-17 05:21:00,
2013-03-17 01:31:00,52.7,44.3,30.04,SW,234,0.0,0.0,73,0.00,CLR,,0.00,WeatherDisplay:10.37,2013-03-17 05:31:00,
2013-03-17 01:36:00,52.5,44.1,30.04,SW,234,0.0,0.0,73,0.00,CLR,,0.00,WeatherDisplay:10.37,2013-03-17 05:36:00,
2013-03-17 01:46:00,52.3,44.3,30.04,SW,234,0.0,0.0,74,0.00,CLR,,0.00,WeatherDisplay:10.37,2013-03-17 05:46:00,
2013-03-17 01:51:00,52.3,44.3,30.04,SW,234,0.0,0.0,74,0.00,CLR,,0.00,WeatherDisplay:10.37,2013-03-17 05:51:00,
2013-03-17 02:00:00,52.0,43.6,30.04,SW,234,0.0,0.0,73,0.00,CLR,,0.00,WeatherDisplay:10.37,2013-03-17 06:00:00,
2013-03-17 02:01:00,51.8,43.8,30.04,SW,234,0.0,0.0,74,0.00,CLR,,0.00,WeatherDisplay:10.37,2013-03-17 06:01:00,
2013-03-17 02:05:00,51.8,43.8,30.04,SW,234,0.0,0.0,74,0.00,CLR,,0.00,WeatherDisplay:10.37,2013-03-17 06:05:00,
2013-03-17 02:10:00,51.8,43.8,30.04,SW,234,0.0,0.0,74,0.00,CLR,,0.00,WeatherDisplay:10.37,2013-03-17 06:10:00,
2013-03-17 02:16:00,51.8,43.8,30.04,SW,234,0.0,0.0,74,0.00,CLR,,0.00,WeatherDisplay:10.37,2013-03-17 06:16:00,
2013-03-17 02:21:00,51.6,43.6,30.04,SW,234,0.0,0.0,74,0.00,CLR,,0.00,WeatherDisplay:10.37,2013-03-17 06:21:00,
2013-03-17 02:31:00,51.6,44.0,30.04,SW,234,0.0,0.0,75,0.00,CLR,,0.00,WeatherDisplay:10.37,2013-03-17 06:31:00,
2013-03-17 02:36:00,51.4,43.8,30.04,SW,234,0.0,0.0,75,0.00,CLR,,0.00,WeatherDisplay:10.37,2013-03-17 06:36:00,
2013-03-17 02:46:00,51.1,43.4,30.04,SW,234,0.0,0.0,75,0.00,CLR,,0.00,WeatherDisplay:10.37,2013-03-17 06:46:00,
2013-03-17 02:51:00,51.1,43.4,30.04,SW,234,0.0,0.0,75,0.00,CLR,,0.00,WeatherDisplay:10.37,2013-03-17 06:51:00,
2013-03-17 03:00:00,50.9,43.3,30.04,SW,234,0.0,0.0,75,0.00,CLR,,0.00,WeatherDisplay:10.37,2013-03-17 07:00:00,
2013-03-17 03:01:00,50.9,43.3,30.04,SW,234,0.0,0.0,75,0.00,CLR,,0.00,WeatherDisplay:10.37,2013-03-17 07:01:00,
2013-03-17 03:05:00,50.9,43.3,30.04,SW,234,0.0,0.0,75,0.00,CLR,,0.00,WeatherDisplay:10.37,2013-03-17 07:05:00,
2013-03-17 03:10:00,50.9,43.3,30.04,SW,234,0.0,0.0,75,0.00,CLR,,0.00,WeatherDisplay:10.37,2013-03-17 07:10:00,
2013-03-17 03:16:00,50.7,43.1,30.04,SW,234,0.0,0.0,75,0.00,CLR,,0.00,WeatherDisplay:10.37,2013-03-17 07:16:00,
2013-03-17 03:21:00,50.7,43.1,30.04,SW,234,0.0,0.0,75,0.00,CLR,,0.00,WeatherDisplay:10.37,2013-03-17 07:21:00,
2013-03-17 03:31:00,50.7,43.4,30.01,SW,234,0.0,0.0,76,0.00,CLR,,0.00,WeatherDisplay:10.37,2013-03-17 07:31:00,
2013-03-17 03:36:00,50.7,43.4,30.01,SW,234,0.0,0.0,76,0.00,CLR,,0.00,WeatherDisplay:10.37,2013-03-17 07:36:00,
2013-03-17 03:46:00,50.9,43.6,30.01,SW,234,0.0,0.0,76,0.00,CLR,,0.00,WeatherDisplay:10.37,2013-03-17 07:46:00,
2013-03-17 03:51:00,50.9,43.6,30.01,SW,234,0.0,0.0,76,0.00,CLR,,0.00,WeatherDisplay:10.37,2013-03-17 07:51:00,
2013-03-17 04:00:00,51.1,43.8,30.01,SW,234,0.0,0.0,76,0.00,CLR,,0.00,WeatherDisplay:10.37,2013-03-17 08:00:00,
2013-03-17 04:01:00,51.3,44.3,30.01,SW,234,0.0,0.0,77,0.00,CLR,,0.00,WeatherDisplay:10.37,2013-03-17 08:01:00,
2013-03-17 04:05:00,51.1,43.8,30.01,SW,234,0.0,0.0,76,0.00,CLR,,0.00,WeatherDisplay:10.37,2013-03-17 08:05:00,
2013-03-17 04:10:00,51.3,44.3,30.01,SW,234,0.0,0.0,77,0.00,CLR,,0.00,WeatherDisplay:10.37,2013-03-17 08:10:00,
2013-03-17 04:16:00,51.6,44.6,30.01,SW,234,0.0,0.0,77,0.00,CLR,,0.00,WeatherDisplay:10.37,2013-03-17 08:16:00,
2013-03-17 04:21:00,51.6,44.6,30.01,SW,234,0.0,0.0,77,0.00,CLR,,0.00,WeatherDisplay:10.37,2013-03-17 08:21:00,
2013-03-17 04:31:00,52.2,45.2,30.01,SW,234,0.0,0.0,77,0.00,CLR,,0.00,WeatherDisplay:10.37,2013-03-17 08:31:00,
2013-03-17 04:36:00,52.3,45.3,30.01,SW,234,0.0,0.0,77,0.00,CLR,,0.00,WeatherDisplay:10.37,2013-03-17 08:36:00,
2013-03-17 04:46:00,52.5,45.9,30.01,SW,234,0.0,0.0,78,0.00,CLR,,0.00,WeatherDisplay:10.37,2013-03-17 08:46:00,
2013-03-17 04:51:00,52.5,45.9,30.01,SW,234,0.0,0.0,78,0.00,CLR,,0.00,WeatherDisplay:10.37,2013-03-17 08:51:00,
2013-03-17 05:00:00,52.7,46.0,30.01,SW,234,0.0,0.0,78,0.00,CLR,,0.00,WeatherDisplay:10.37,2013-03-17 09:00:00,
2013-03-17 05:01:00,52.7,46.0,30.01,SW,234,0.0,0.0,78,0.00,CLR,,0.00,WeatherDisplay:10.37,2013-03-17 09:01:00,
2013-03-17 05:05:00,52.5,45.9,30.01,SW,234,0.0,0.0,78,0.00,CLR,,0.00,WeatherDisplay:10.37,2013-03-17 09:05:00,
2013-03-17 05:10:00,52.7,46.0,30.01,SW,234,0.0,0.0,78,0.00,CLR,,0.00,WeatherDisplay:10.37,2013-03-17 09:10:00,
2013-03-17 05:16:00,52.7,46.0,30.01,SW,234,0.0,0.0,78,0.00,CLR,,0.00,WeatherDisplay:10.37,2013-03-17 09:16:00,
2013-03-17 05:21:00,52.9,46.2,30.01,SW,234,0.0,0.0,78,0.00,CLR,,0.00,WeatherDisplay:10.37,2013-03-17 09:21:00,
2013-03-17 05:31:00,52.9,46.2,30.01,SW,234,0.0,0.0,78,0.00,CLR,,0.00,WeatherDisplay:10.37,2013-03-17 09:31:00,
2013-03-17 05:36:00,52.9,46.5,30.01,SW,234,0.0,0.0,79,0.00,CLR,,0.00,WeatherDisplay:10.37,2013-03-17 09:36:00,
2013-03-17 05:46:00,52.9,46.5,30.01,SW,234,0.0,0.0,79,0.00,CLR,,0.00,WeatherDisplay:10.37,2013-03-17 09:46:00,
2013-03-17 05:51:00,52.9,46.5,30.01,SW,234,0.0,0.0,79,0.00,CLR,,0.00,WeatherDisplay:10.37,2013-03-17 09:51:00,
2013-03-17 06:00:00,53.2,47.2,30.01,SW,234,0.0,0.0,80,0.00,CLR,,0.00,WeatherDisplay:10.37,2013-03-17 10:00:00,
2013-03-17 06:01:00,53.4,47.4,30.01,SW,234,0.0,0.0,80,0.00,CLR,,0.00,WeatherDisplay:10.37,2013-03-17 10:01:00,
2013-03-17 06:05:00,53.4,47.4,30.01,SW,234,0.0,0.0,80,0.00,CLR,,0.00,WeatherDisplay:10.37,2013-03-17 10:05:00,
2013-03-17 06:10:00,53.4,47.4,30.01,SW,234,0.0,0.0,80,0.00,CLR,,0.00,WeatherDisplay:10.37,2013-03-17 10:10:00,
2013-03-17 06:16:00,53.6,47.2,30.01,SW,234,0.0,0.0,79,0.00,CLR,,0.00,WeatherDisplay:10.37,2013-03-17 10:16:00,
2013-03-17 06:21:00,53.8,47.8,30.01,SW,234,0.0,0.0,80,0.00,CLR,,0.00,WeatherDisplay:10.37,2013-03-17 10:21:00,
2013-03-17 06:31:00,53.6,47.2,30.01,SW,234,0.0,0.0,79,0.00,CLR,,0.00,WeatherDisplay:10.37,2013-03-17 10:31:00,
2013-03-17 06:36:00,53.6,47.6,30.01,SW,234,0.0,0.0,80,0.00,CLR,,0.00,WeatherDisplay:10.37,2013-03-17 10:36:00,
2013-03-17 06:46:00,53.6,47.6,30.01,SW,234,0.0,0.0,80,0.00,CLR,,0.00,WeatherDisplay:10.37,2013-03-17 10:46:00,
2013-03-17 06:51:00,53.8,47.8,30.01,SW,234,0.0,0.0,80,0.00,CLR,,0.00,WeatherDisplay:10.37,2013-03-17 10:51:00,
2013-03-17 07:00:00,53.6,47.6,30.01,SW,234,0.0,0.0,80,0.00,CLR,,0.00,WeatherDisplay:10.37,2013-03-17 11:00:00,
2013-03-17 07:01:00,53.4,47.4,30.01,SW,234,0.0,0.0,80,0.00,CLR,,0.00,WeatherDisplay:10.37,2013-03-17 11:01:00,
2013-03-17 07:05:00,53.6,47.6,30.01,SW,234,0.0,0.0,80,0.00,CLR,,0.00,WeatherDisplay:10.37,2013-03-17 11:05:00,
2013-03-17 07:10:00,53.4,47.4,30.01,SW,234,0.0,0.0,80,0.00,CLR,,0.00,WeatherDisplay:10.37,2013-03-17 11:10:00,
2013-03-17 07:16:00,53.4,47.7,30.04,SW,234,0.0,0.0,81,0.00,CLR,,0.00,WeatherDisplay:10.37,2013-03-17 11:16:00,
2013-03-17 07:21:00,53.6,47.9,30.04,SW,234,0.0,0.0,81,0.00,CLR,,0.00,WeatherDisplay:10.37,2013-03-17 11:21:00,
2013-03-17 07:31:00,53.8,48.1,30.04,SW,234,0.0,0.0,81,0.00,CLR,,0.00,WeatherDisplay:10.37,2013-03-17 11:31:00,
2013-03-17 07:36:00,53.8,48.1,30.04,SW,234,0.0,0.0,81,0.00,CLR,,0.00,WeatherDisplay:10.37,2013-03-17 11:36:00,
2013-03-17 07:46:00,54.0,48.3,30.04,SW,233,0.0,0.0,81,0.00,CLR,,0.00,WeatherDisplay:10.37,2013-03-17 11:46:00,
2013-03-17 07:51:00,54.1,48.4,30.04,SW,234,0.0,0.0,81,0.00,CLR,,0.00,WeatherDisplay:10.37,2013-03-17 11:51:00,
2013-03-17 08:00:00,54.5,49.1,30.04,SE,145,0.0,0.0,82,0.00,CLR,,0.00,WeatherDisplay:10.37,2013-03-17 12:00:00,
2013-03-17 08:01:00,55.2,49.8,30.04,SE,145,0.0,0.0,82,0.00,CLR,,0.00,WeatherDisplay:10.37,2013-03-17 12:01:00,
2013-03-17 08:05:00,54.9,49.5,30.04,SE,145,0.0,0.0,82,0.00,CLR,,0.00,WeatherDisplay:10.37,2013-03-17 12:05:00,
2013-03-17 08:10:00,55.2,49.8,30.04,SE,145,0.0,0.0,82,0.00,CLR,,0.00,WeatherDisplay:10.37,2013-03-17 12:10:00,
2013-03-17 08:16:00,55.6,50.2,30.04,SE,145,0.0,0.0,82,0.00,CLR,,0.00,WeatherDisplay:10.37,2013-03-17 12:16:00,
2013-03-17 08:21:00,55.9,50.5,30.04,SE,145,0.0,0.0,82,0.00,CLR,,0.00,WeatherDisplay:10.37,2013-03-17 12:21:00,
2013-03-17 08:31:00,56.7,51.2,30.04,SE,131,0.0,0.0,82,0.00,CLR,,0.00,WeatherDisplay:10.37,2013-03-17 12:31:00,
2013-03-17 08:36:00,57.0,51.9,30.04,ESE,113,0.0,0.0,83,0.00,CLR,,0.00,WeatherDisplay:10.37,2013-03-17 12:36:00,
2013-03-17 08:46:00,57.6,52.1,30.07,East,81,0.0,0.0,82,0.00,CLR,,0.00,WeatherDisplay:10.37,2013-03-17 12:46:00,
2013-03-17 08:51:00,57.7,52.6,30.07,East,83,0.0,0.0,83,0.00,CLR,,0.00,WeatherDisplay:10.37,2013-03-17 12:51:00,
2013-03-17 09:00:00,58.6,53.5,30.07,East,93,0.0,0.0,83,0.00,CLR,,0.00,WeatherDisplay:10.37,2013-03-17 13:00:00,
2013-03-17 09:01:00,59.9,54.7,30.07,ESE,123,3.6,3.6,83,0.00,CLR,,0.00,WeatherDisplay:10.37,2013-03-17 13:01:00,
2013-03-17 09:05:00,59.4,54.2,30.07,ESE,114,3.6,0.0,83,0.00,CLR,,0.00,WeatherDisplay:10.37,2013-03-17 13:05:00,
2013-03-17 09:10:00,59.9,54.7,30.07,SE,126,2.7,0.0,83,0.00,CLR,,0.00,WeatherDisplay:10.37,2013-03-17 13:10:00,
2013-03-17 09:16:00,60.3,55.1,30.07,SE,124,3.4,3.4,83,0.00,CLR,,0.00,WeatherDisplay:10.37,2013-03-17 13:16:00,
2013-03-17 09:21:00,60.4,55.3,30.07,ESE,119,5.8,5.8,83,0.00,CLR,,0.00,WeatherDisplay:10.37,2013-03-17 13:21:00,
2013-03-17 09:31:00,60.8,55.6,30.04,ESE,112,2.7,0.0,83,0.00,CLR,,0.00,WeatherDisplay:10.37,2013-03-17 13:31:00,
2013-03-17 09:36:00,61.2,56.0,30.04,ESE,118,4.9,4.9,83,0.00,CLR,,0.00,WeatherDisplay:10.37,2013-03-17 13:36:00,
2013-03-17 09:46:00,62.8,57.9,30.07,ESE,111,3.4,3.4,84,0.00,CLR,,0.00,WeatherDisplay:10.37,2013-03-17 13:46:00,
2013-03-17 09:51:00,63.7,58.8,30.07,East,90,3.4,3.4,84,0.00,CLR,,0.00,WeatherDisplay:10.37,2013-03-17 13:51:00,
2013-03-17 10:00:00,65.1,60.2,30.07,East,98,3.1,0.0,84,0.00,CLR,,0.00,WeatherDisplay:10.37,2013-03-17 14:00:00,
2013-03-17 10:01:00,66.0,60.4,30.07,South,186,3.6,3.6,82,0.00,CLR,,0.00,WeatherDisplay:10.37,2013-03-17 14:01:00,
2013-03-17 10:05:00,65.7,60.4,30.07,SE,129,3.6,3.6,83,0.00,CLR,,0.00,WeatherDisplay:10.37,2013-03-17 14:05:00,
2013-03-17 10:10:00,65.8,60.5,30.07,East,85,3.6,3.6,83,0.00,CLR,,0.00,WeatherDisplay:10.37,2013-03-17 14:10:00,
2013-03-17 10:16:00,66.2,60.5,30.07,East,95,2.3,0.0,82,0.00,CLR,,0.00,WeatherDisplay:10.37,2013-03-17 14:16:00,
2013-03-17 10:21:00,66.4,60.4,30.07,SE,143,3.6,3.6,81,0.00,CLR,,0.00,WeatherDisplay:10.37,2013-03-17 14:21:00,
2013-03-17 10:31:00,67.1,60.4,30.07,ESE,120,3.4,3.4,79,0.00,CLR,,0.00,WeatherDisplay:10.37,2013-03-17 14:31:00,
2013-03-17 10:36:00,67.3,57.6,30.07,East,85,2.7,0.0,71,0.00,CLR,,0.00,WeatherDisplay:10.37,2013-03-17 14:36:00,
2013-03-17 10:46:00,68.2,53.8,30.07,SSE,152,4.0,4.0,60,0.00,CLR,,0.00,WeatherDisplay:10.37,2013-03-17 14:46:00,
2013-03-17 10:51:00,68.9,51.1,30.07,ESE,108,8.1,8.1,53,0.00,CLR,,0.00,WeatherDisplay:10.37,2013-03-17 14:51:00,
2013-03-17 11:00:00,70.2,50.6,30.07,SE,128,5.8,5.8,50,0.00,CLR,,0.00,WeatherDisplay:10.37,2013-03-17 15:00:00,
2013-03-17 11:01:00,72.3,49.2,30.07,ENE,78,4.9,4.9,44,0.00,FEW,,0.00,WeatherDisplay:10.37,2013-03-17 15:01:00,
2013-03-17 11:05:00,71.2,51.1,30.07,East,95,3.4,0.0,49,0.00,FEW,,0.00,WeatherDisplay:10.37,2013-03-17 15:05:00,
2013-03-17 11:10:00,72.3,49.2,30.07,SE,124,4.0,4.0,44,0.00,FEW,,0.00,WeatherDisplay:10.37,2013-03-17 15:10:00,
2013-03-17 11:16:00,72.5,47.5,30.07,ESE,110,4.0,4.0,41,0.00,FEW,,0.00,WeatherDisplay:10.37,2013-03-17 15:16:00,
2013-03-17 11:22:00,72.5,48.1,30.07,North,3,4.6,4.6,42,0.00,FEW,,0.00,WeatherDisplay:10.37,2013-03-17 15:22:00,
2013-03-17 11:31:00,73.0,47.3,30.07,SSW,196,8.7,8.7,40,0.00,FEW,,0.00,WeatherDisplay:10.37,2013-03-17 15:31:00,
2013-03-17 11:36:00,73.0,44.5,30.07,SSE,159,8.1,8.1,36,0.00,FEW,,0.00,WeatherDisplay:10.37,2013-03-17 15:36:00,
2013-03-17 11:46:00,73.9,45.3,30.10,East,99,5.8,5.8,36,0.00,FEW,,0.00,WeatherDisplay:10.37,2013-03-17 15:46:00,
2013-03-17 11:51:00,73.8,44.4,30.10,SE,137,8.1,8.1,35,0.00,FEW,,0.00,WeatherDisplay:10.37,2013-03-17 15:51:00,
2013-03-17 12:00:00,74.3,47.0,30.07,ESE,122,5.8,5.8,38,0.00,FEW,,0.00,WeatherDisplay:10.37,2013-03-17 16:00:00,
2013-03-17 12:01:00,74.7,44.4,30.07,SW,218,5.8,5.8,34,0.00,FEW,,0.00,WeatherDisplay:10.37,2013-03-17 16:01:00,
2013-03-17 12:05:00,74.8,46.1,30.07,SSE,151,5.8,5.8,36,0.00,FEW,,0.00,WeatherDisplay:10.37,2013-03-17 16:05:00,
2013-03-17 12:10:00,74.8,44.6,30.07,SSE,148,8.1,8.1,34,0.00,FEW,,0.00,WeatherDisplay:10.37,2013-03-17 16:10:00,
2013-03-17 12:16:00,74.5,45.8,30.07,South,172,5.8,5.8,36,0.00,FEW,,0.00,WeatherDisplay:10.37,2013-03-17 16:16:00,
2013-03-17 12:21:00,74.1,45.5,30.07,ESE,102,8.1,8.1,36,0.00,FEW,,0.00,WeatherDisplay:10.37,2013-03-17 16:21:00,
2013-03-17 12:31:00,73.8,45.1,30.07,SE,137,5.8,5.8,36,0.00,FEW,,0.00,WeatherDisplay:10.37,2013-03-17 16:31:00,
2013-03-17 12:36:00,73.9,46.7,30.07,South,171,5.8,5.8,38,0.00,FEW,,0.00,WeatherDisplay:10.37,2013-03-17 16:36:00,
2013-03-17 12:46:00,74.1,46.2,30.07,SSE,147,5.8,5.8,37,0.00,FEW,,0.00,WeatherDisplay:10.37,2013-03-17 16:46:00,
2013-03-17 12:51:00,74.5,47.2,30.07,SE,145,5.8,5.8,38,0.00,FEW,,0.00,WeatherDisplay:10.37,2013-03-17 16:51:00,
2013-03-17 13:00:00,75.2,47.1,30.07,SSE,147,5.8,5.8,37,0.00,FEW,,0.00,WeatherDisplay:10.37,2013-03-17 17:00:00,
2013-03-17 13:01:00,76.3,46.6,30.07,South,172,5.4,5.4,35,0.00,FEW,,0.00,WeatherDisplay:10.37,2013-03-17 17:01:00,
2013-03-17 13:05:00,75.9,47.8,30.07,ESE,112,8.1,8.1,37,0.00,FEW,,0.00,WeatherDisplay:10.37,2013-03-17 17:05:00,
2013-03-17 13:10:00,76.3,46.6,30.07,ESE,117,5.8,5.8,35,0.00,FEW,,0.00,WeatherDisplay:10.37,2013-03-17 17:10:00,
2013-03-17 13:16:00,76.1,46.5,30.07,SSE,148,5.8,5.8,35,0.00,FEW,,0.00,WeatherDisplay:10.37,2013-03-17 17:16:00,
2013-03-17 13:21:00,76.3,46.6,30.07,ESE,107,8.1,8.1,35,0.00,FEW,,0.00,WeatherDisplay:10.37,2013-03-17 17:21:00,
2013-03-17 13:31:00,77.2,46.6,30.07,SE,129,8.1,8.1,34,0.00,FEW,,0.00,WeatherDisplay:10.37,2013-03-17 17:31:00,
2013-03-17 13:36:00,77.4,46.0,30.07,SSW,193,8.1,8.1,33,0.00,FEW,,0.00,WeatherDisplay:10.37,2013-03-17 17:36:00,
2013-03-17 13:46:00,77.0,46.5,30.07,SSE,161,5.8,5.8,34,0.00,FEW,,0.00,WeatherDisplay:10.37,2013-03-17 17:46:00,
2013-03-17 13:51:00,77.2,45.8,30.07,SW,224,9.2,9.2,33,0.00,FEW,,0.00,WeatherDisplay:10.37,2013-03-17 17:51:00,
2013-03-17 14:00:00,77.4,46.0,30.04,SE,145,8.1,8.1,33,0.00,FEW,,0.00,WeatherDisplay:10.37,2013-03-17 18:00:00,
2013-03-17 14:01:00,77.4,46.0,30.04,ESE,111,8.1,8.1,33,0.00,BKN,,0.00,WeatherDisplay:10.37,2013-03-17 18:01:00,
2013-03-17 14:05:00,77.4,46.0,30.04,SSW,200,9.2,9.2,33,0.00,BKN,,0.00,WeatherDisplay:10.37,2013-03-17 18:05:00,
2013-03-17 14:10:00,77.4,46.0,30.04,SE,146,8.0,8.0,33,0.00,BKN,,0.00,WeatherDisplay:10.37,2013-03-17 18:10:00,
2013-03-17 14:16:00,77.2,45.8,30.04,SE,125,8.3,8.3,33,0.00,BKN,,0.00,WeatherDisplay:10.37,2013-03-17 18:16:00,
2013-03-17 14:21:00,77.2,45.8,30.04,SSW,209,8.1,8.1,33,0.00,BKN,,0.00,WeatherDisplay:10.37,2013-03-17 18:21:00,
2013-03-17 14:31:00,76.3,45.8,30.04,SSW,202,5.8,5.8,34,0.00,BKN,,0.00,WeatherDisplay:10.37,2013-03-17 18:31:00,
2013-03-17 14:36:00,75.9,46.3,30.04,SSW,200,9.6,9.6,35,0.00,BKN,,0.00,WeatherDisplay:10.37,2013-03-17 18:36:00,
2013-03-17 14:46:00,75.7,46.9,30.04,SSW,197,9.2,9.2,36,0.00,BKN,,0.00,WeatherDisplay:10.37,2013-03-17 18:46:00,
2013-03-17 14:51:00,75.4,46.6,30.04,South,185,9.2,9.2,36,0.00,BKN,,0.00,WeatherDisplay:10.37,2013-03-17 18:51:00,
2013-03-17 15:00:00,74.8,48.2,30.04,South,177,8.1,8.1,39,0.00,BKN,,0.00,WeatherDisplay:10.37,2013-03-17 19:00:00,
2013-03-17 15:01:00,75.6,48.2,30.04,SW,234,5.8,5.8,38,0.00,FEW,,0.00,WeatherDisplay:10.37,2013-03-17 19:01:00,
2013-03-17 15:05:00,75.0,48.4,30.04,SE,146,8.1,8.1,39,0.00,FEW,,0.00,WeatherDisplay:10.37,2013-03-17 19:05:00,
2013-03-17 15:10:00,75.6,48.9,30.04,South,186,5.8,5.8,39,0.00,FEW,,0.00,WeatherDisplay:10.37,2013-03-17 19:10:00,
2013-03-17 15:16:00,75.7,47.6,30.04,South,191,12.6,12.6,37,0.00,FEW,,0.00,WeatherDisplay:10.37,2013-03-17 19:16:00,
2013-03-17 15:21:00,75.4,45.8,30.04,WSW,247,10.3,10.3,35,0.00,FEW,,0.00,WeatherDisplay:10.37,2013-03-17 19:21:00,
2013-03-17 15:31:00,73.9,46.0,30.01,SW,226,5.8,5.8,37,0.00,FEW,,0.00,WeatherDisplay:10.37,2013-03-17 19:31:00,
2013-03-17 15:36:00,73.8,47.9,30.01,SW,226,8.3,8.3,40,0.00,FEW,,0.00,WeatherDisplay:10.37,2013-03-17 19:36:00,
2013-03-17 15:46:00,73.4,47.6,30.01,WSW,244,12.6,12.6,40,0.00,FEW,,0.00,WeatherDisplay:10.37,2013-03-17 19:46:00,
2013-03-17 15:51:00,73.4,48.3,30.01,SE,138,8.1,8.1,41,0.00,FEW,,0.00,WeatherDisplay:10.37,2013-03-17 19:51:00,
2013-03-17 16:00:00,73.6,47.1,30.01,SSE,150,8.1,8.1,39,0.00,FEW,,0.00,WeatherDisplay:10.37,2013-03-17 20:00:00,
2013-03-17 16:01:00,73.2,46.8,29.98,South,181,5.8,5.8,39,0.00,CLR,,0.00,WeatherDisplay:10.37,2013-03-17 20:01:00,
2013-03-17 16:05:00,73.4,46.2,30.01,ESE,112,11.5,11.5,38,0.00,CLR,,0.00,WeatherDisplay:10.37,2013-03-17 20:05:00,
2013-03-17 16:10:00,73.2,46.8,30.01,SSE,155,7.6,7.6,39,0.00,CLR,,0.00,WeatherDisplay:10.37,2013-03-17 20:10:00,
2013-03-17 16:16:00,73.0,44.5,29.98,ESE,120,8.1,8.1,36,0.00,CLR,,0.00,WeatherDisplay:10.37,2013-03-17 20:16:00,
2013-03-17 16:22:00,72.9,45.1,29.98,SSE,151,5.8,5.8,37,0.00,CLR,,0.00,WeatherDisplay:10.37,2013-03-17 20:22:00,
2013-03-17 16:31:00,72.5,48.1,29.98,NE,46,8.1,8.1,42,0.00,CLR,,0.00,WeatherDisplay:10.37,2013-03-17 20:31:00,
2013-03-17 16:36:00,72.3,49.8,29.98,SE,136,4.6,4.6,45,0.00,CLR,,0.00,WeatherDisplay:10.37,2013-03-17 20:36:00,
2013-03-17 16:46:00,71.6,50.3,30.01,SSE,165,6.3,6.3,47,0.00,CLR,,0.00,WeatherDisplay:10.37,2013-03-17 20:46:00,
2013-03-17 16:51:00,71.4,51.3,30.01,SW,234,5.8,5.8,49,0.00,CLR,,0.00,WeatherDisplay:10.37,2013-03-17 20:51:00,
2013-03-17 17:00:00,71.1,50.9,30.01,SW,217,4.6,4.6,49,0.00,CLR,,0.00,WeatherDisplay:10.37,2013-03-17 21:00:00,
2013-03-17 17:01:00,70.9,51.3,30.01,SSE,168,5.4,5.4,50,0.00,BKN,,0.00,WeatherDisplay:10.37,2013-03-17 21:01:00,
2013-03-17 17:05:00,71.1,50.9,30.01,ESE,122,2.7,0.0,49,0.00,BKN,,0.00,WeatherDisplay:10.37,2013-03-17 21:05:00,
2013-03-17 17:10:00,70.9,51.3,30.01,SSE,150,4.0,4.0,50,0.00,BKN,,0.00,WeatherDisplay:10.37,2013-03-17 21:10:00,
2013-03-17 17:16:00,70.9,51.3,30.01,SE,141,5.8,5.8,50,0.00,BKN,,0.00,WeatherDisplay:10.37,2013-03-17 21:16:00,
2013-03-17 17:21:00,70.9,51.3,30.01,SE,133,5.8,5.8,50,0.00,BKN,,0.00,WeatherDisplay:10.37,2013-03-17 21:21:00,
2013-03-17 17:31:00,70.9,51.8,30.01,SE,125,5.8,5.8,51,0.00,BKN,,0.00,WeatherDisplay:10.37,2013-03-17 21:31:00,
2013-03-17 17:36:00,70.9,51.8,30.01,SSW,197,3.6,3.6,51,0.00,BKN,,0.00,WeatherDisplay:10.37,2013-03-17 21:36:00,
2013-03-17 17:46:00,71.1,51.5,30.01,SSE,162,5.8,5.8,50,0.00,BKN,,0.00,WeatherDisplay:10.37,2013-03-17 21:46:00,
2013-03-17 17:51:00,71.1,50.9,30.01,SE,143,4.6,4.6,49,0.00,BKN,,0.00,WeatherDisplay:10.37,2013-03-17 21:51:00,
2013-03-17 18:00:00,71.2,51.1,30.01,SSE,158,4.6,4.6,49,0.00,BKN,,0.00,WeatherDisplay:10.37,2013-03-17 22:00:00,
2013-03-17 18:01:00,71.2,50.0,30.01,South,184,5.8,5.8,47,0.00,OVC,,0.00,WeatherDisplay:10.37,2013-03-17 22:01:00,
2013-03-17 18:05:00,71.4,50.7,30.01,SE,130,5.8,5.8,48,0.00,OVC,,0.00,WeatherDisplay:10.37,2013-03-17 22:05:00,
2013-03-17 18:10:00,71.2,50.0,30.01,SSW,211,6.9,6.9,47,0.00,OVC,,0.00,WeatherDisplay:10.37,2013-03-17 22:10:00,
2013-03-17 18:16:00,71.2,50.0,30.01,South,186,5.8,5.8,47,0.00,OVC,,0.00,WeatherDisplay:10.37,2013-03-17 22:16:00,
2013-03-17 18:21:00,71.2,49.4,30.01,SSE,151,3.4,3.4,46,0.00,OVC,,0.00,WeatherDisplay:10.37,2013-03-17 22:21:00,
2013-03-17 18:31:00,71.1,49.2,30.01,SSE,165,4.6,4.6,46,0.00,OVC,,0.00,WeatherDisplay:10.37,2013-03-17 22:31:00,
2013-03-17 18:36:00,70.9,49.6,30.01,SE,146,4.5,4.5,47,0.00,OVC,,0.00,WeatherDisplay:10.37,2013-03-17 22:36:00,
2013-03-17 18:46:00,70.7,49.5,30.01,SSE,150,5.8,5.8,47,0.00,OVC,,0.00,WeatherDisplay:10.37,2013-03-17 22:46:00,
2013-03-17 18:51:00,70.7,49.5,30.01,SE,128,4.6,4.6,47,0.00,OVC,,0.00,WeatherDisplay:10.37,2013-03-17 22:51:00,
2013-03-17 19:00:00,70.5,49.3,30.01,SE,143,5.8,5.8,47,0.00,OVC,,0.00,WeatherDisplay:10.37,2013-03-17 23:00:00,
2013-03-17 19:01:00,70.3,49.1,30.01,ESE,116,5.8,5.8,47,0.00,BKN,,0.00,WeatherDisplay:10.37,2013-03-17 23:01:00,
2013-03-17 19:05:00,70.5,49.3,30.01,SW,220,3.4,0.0,47,0.00,BKN,,0.00,WeatherDisplay:10.37,2013-03-17 23:05:00,
2013-03-17 19:10:00,70.3,49.1,30.01,South,169,3.6,3.6,47,0.00,BKN,,0.00,WeatherDisplay:10.37,2013-03-17 23:10:00,
2013-03-17 19:16:00,70.3,49.7,30.01,SSW,202,5.8,5.8,48,0.00,BKN,,0.00,WeatherDisplay:10.37,2013-03-17 23:16:00,
2013-03-17 19:21:00,70.2,49.5,30.01,SSE,161,3.6,3.6,48,0.00,BKN,,0.00,WeatherDisplay:10.37,2013-03-17 23:21:00,
2013-03-17 19:31:00,70.0,49.4,30.01,SSE,162,5.8,5.8,48,0.00,BKN,,0.00,WeatherDisplay:10.37,2013-03-17 23:31:00,
2013-03-17 19:36:00,69.8,49.2,30.01,SE,139,2.3,0.0,48,0.00,BKN,,0.00,WeatherDisplay:10.37,2013-03-17 23:36:00,
2013-03-17 19:46:00,69.4,49.4,30.01,South,180,4.6,0.0,49,0.00,BKN,,0.00,WeatherDisplay:10.37,2013-03-17 23:46:00,
2013-03-17 19:51:00,69.3,49.8,30.01,SSW,213,4.0,4.0,50,0.00,BKN,,0.00,WeatherDisplay:10.37,2013-03-17 23:51:00,
2013-03-17 20:00:00,69.1,49.7,30.01,SSE,164,3.4,3.4,50,0.00,BKN,,0.00,WeatherDisplay:10.37,2013-03-18 00:00:00,
2013-03-17 20:01:00,69.1,50.2,30.01,SE,140,0.0,0.0,51,0.00,OVC,,0.00,WeatherDisplay:10.37,2013-03-18 00:01:00,
2013-03-17 20:05:00,69.1,50.2,30.01,South,175,2.3,0.0,51,0.00,OVC,,0.00,WeatherDisplay:10.37,2013-03-18 00:05:00,
2013-03-17 20:10:00,69.1,50.2,30.01,SE,140,0.0,0.0,51,0.00,OVC,,0.00,WeatherDisplay:10.37,2013-03-18 00:10:00,
2013-03-17 20:16:00,68.9,50.0,30.01,South,178,2.7,0.0,51,0.00,OVC,,0.00,WeatherDisplay:10.37,2013-03-18 00:16:00,
2013-03-17 20:21:00,68.7,49.9,30.01,ESE,119,2.3,0.0,51,0.00,OVC,,0.00,WeatherDisplay:10.37,2013-03-18 00:21:00,
2013-03-17 20:31:00,68.5,50.7,30.01,SE,128,4.0,0.0,53,0.00,OVC,,0.00,WeatherDisplay:10.37,2013-03-18 00:31:00,
2013-03-17 20:36:00,68.5,50.7,30.01,South,187,3.4,3.4,53,0.00,OVC,,0.00,WeatherDisplay:10.37,2013-03-18 00:36:00,
2013-03-17 20:46:00,68.5,50.7,30.01,SSE,166,2.3,0.0,53,0.00,OVC,,0.00,WeatherDisplay:10.37,2013-03-18 00:46:00,
2013-03-17 20:51:00,68.5,50.7,30.01,SSW,195,2.7,2.7,53,0.00,OVC,,0.00,WeatherDisplay:10.37,2013-03-18 00:51:00,
2013-03-17 21:00:00,68.5,50.7,30.01,SSW,202,0.0,0.0,53,0.00,OVC,,0.00,WeatherDisplay:10.37,2013-03-18 01:00:00,
2013-03-17 21:01:00,68.4,50.6,30.01,South,171,0.0,0.0,53,0.00,OVC,,0.00,WeatherDisplay:10.37,2013-03-18 01:01:00,
2013-03-17 21:05:00,68.5,50.7,30.01,SSW,204,0.0,0.0,53,0.00,OVC,,0.00,WeatherDisplay:10.37,2013-03-18 01:05:00,
2013-03-17 21:10:00,68.4,50.6,30.01,South,171,0.0,0.0,53,0.00,OVC,,0.00,WeatherDisplay:10.37,2013-03-18 01:10:00,
2013-03-17 21:16:00,68.4,50.6,30.04,SSE,148,2.3,0.0,53,0.00,OVC,,0.00,WeatherDisplay:10.37,2013-03-18 01:16:00,
2013-03-17 21:21:00,68.2,50.4,30.04,SE,134,2.7,0.0,53,0.00,OVC,,0.00,WeatherDisplay:10.37,2013-03-18 01:21:00,
2013-03-17 21:31:00,68.2,50.9,30.01,SSE,157,2.7,0.0,54,0.00,OVC,,0.00,WeatherDisplay:10.37,2013-03-18 01:31:00,
2013-03-17 21:36:00,68.2,51.4,30.01,South,177,3.4,3.4,55,0.00,OVC,,0.00,WeatherDisplay:10.37,2013-03-18 01:36:00,
2013-03-17 21:46:00,68.4,51.6,30.04,SSE,168,3.4,3.4,55,0.00,OVC,,0.00,WeatherDisplay:10.37,2013-03-18 01:46:00,
2013-03-17 21:51:00,68.4,51.6,30.04,SSE,148,3.4,0.0,55,0.00,OVC,,0.00,WeatherDisplay:10.37,2013-03-18 01:51:00,
2013-03-17 22:00:00,68.4,51.6,30.04,SSE,156,0.0,0.0,55,0.00,OVC,,0.00,WeatherDisplay:10.37,2013-03-18 02:00:00,
2013-03-17 22:01:00,68.2,50.9,30.04,SSE,155,0.0,0.0,54,0.00,OVC,,0.00,WeatherDisplay:10.37,2013-03-18 02:01:00,
2013-03-17 22:05:00,68.4,51.1,30.04,SSE,156,0.0,0.0,54,0.00,OVC,,0.00,WeatherDisplay:10.37,2013-03-18 02:05:00,
2013-03-17 22:10:00,68.2,50.9,30.04,SSE,156,0.0,0.0,54,0.00,OVC,,0.00,WeatherDisplay:10.37,2013-03-18 02:10:00,
2013-03-17 22:16:00,68.0,50.7,30.04,SSE,156,0.0,0.0,54,0.00,OVC,,0.00,WeatherDisplay:10.37,2013-03-18 02:16:00,
2013-03-17 22:21:00,67.8,51.1,30.04,SSE,148,3.6,3.6,55,0.00,OVC,,0.00,WeatherDisplay:10.37,2013-03-18 02:21:00,
2013-03-17 22:31:00,67.6,51.4,30.04,SE,138,0.0,0.0,56,0.00,OVC,,0.00,WeatherDisplay:10.37,2013-03-18 02:31:00,
2013-03-17 22:36:00,67.5,51.2,30.04,SE,138,0.0,0.0,56,0.00,OVC,,0.00,WeatherDisplay:10.37,2013-03-18 02:36:00,
2013-03-17 22:46:00,67.1,50.9,30.04,SE,138,0.0,0.0,56,0.00,OVC,,0.00,WeatherDisplay:10.37,2013-03-18 02:46:00,
2013-03-17 22:51:00,67.1,50.9,30.04,SE,138,0.0,0.0,56,0.00,OVC,,0.00,WeatherDisplay:10.37,2013-03-18 02:51:00,
2013-03-17 23:00:00,66.9,51.2,30.04,SE,138,0.0,0.0,57,0.00,OVC,,0.00,WeatherDisplay:10.37,2013-03-18 03:00:00,
2013-03-17 23:01:00,66.7,51.0,30.04,SE,138,0.0,0.0,57,0.00,SCT,,0.00,WeatherDisplay:10.37,2013-03-18 03:01:00,
2013-03-17 23:05:00,66.7,51.0,30.04,SE,138,0.0,0.0,57,0.00,SCT,,0.00,WeatherDisplay:10.37,2013-03-18 03:05:00,
2013-03-17 23:10:00,66.7,51.0,30.04,SE,138,0.0,0.0,57,0.00,SCT,,0.00,WeatherDisplay:10.37,2013-03-18 03:10:00,
2013-03-17 23:16:00,66.6,51.3,30.04,SE,138,0.0,0.0,58,0.00,SCT,,0.00,WeatherDisplay:10.37,2013-03-18 03:16:00,
2013-03-17 23:21:00,66.6,51.3,30.04,SE,138,0.0,0.0,58,0.00,SCT,,0.00,WeatherDisplay:10.37,2013-03-18 03:21:00,
2013-03-17 23:31:00,66.2,51.0,30.01,SE,138,0.0,0.0,58,0.00,SCT,,0.00,WeatherDisplay:10.37,2013-03-18 03:31:00,
2013-03-17 23:37:00,66.2,51.4,30.01,SE,138,0.0,0.0,59,0.00,SCT,,0.00,WeatherDisplay:10.37,2013-03-18 03:37:00,
2013-03-17 23:46:00,66.0,51.7,30.01,SE,138,0.0,0.0,60,0.00,SCT,,0.00,WeatherDisplay:10.37,2013-03-18 03:46:00,
2013-03-17 23:51:00,65.8,51.6,30.01,SE,138,0.0,0.0,60,0.00,SCT,,0.00,WeatherDisplay:10.37,2013-03-18 03:51:00,